createdAt,value
2022-12-23T00:01:51.254Z,28.87
2022-12-23T00:04:18.257Z,24.83
2022-12-23T00:06:45.183Z,25.83
2022-12-23T00:09:12.037Z,28.77
2022-12-23T00:12:01.690Z,26.17
2022-12-23T00:14:47.119Z,22.90
2022-12-23T00:17:29.143Z,29.10
2022-12-23T00:19:55.944Z,28.57
2022-12-23T00:22:42.748Z,20.23
2022-12-23T00:25:12.156Z,23.97
2022-12-23T00:27:42.480Z,28.63
2022-12-23T00:30:10.783Z,20.50
2022-12-23T00:32:37.615Z,22.27
2022-12-23T00:35:04.699Z,16.87
2022-12-23T00:37:33.828Z,20.77
2022-12-23T00:40:22.282Z,18.30
2022-12-23T00:42:55.587Z,18.53
2022-12-23T00:45:22.653Z,29.97
2022-12-23T00:48:08.223Z,24.83
2022-12-23T00:50:42.395Z,22.80
2022-12-23T00:53:09.330Z,26.77
2022-12-23T00:55:37.474Z,26.37
2022-12-23T00:58:13.366Z,27.27
2022-12-23T01:00:58.916Z,23.97
2022-12-23T01:03:44.530Z,27.17
2022-12-23T01:06:11.406Z,26.43
2022-12-23T01:08:38.581Z,23.10
2022-12-23T01:11:07.825Z,22.97
2022-12-23T01:13:35.031Z,23.77
2022-12-23T01:16:14.997Z,25.60
2022-12-23T01:18:43.847Z,27.97
2022-12-23T01:21:11.353Z,22.27
2022-12-23T01:23:38.272Z,25.40
2022-12-23T01:26:07.062Z,24.97
2022-12-23T01:28:36.299Z,28.43
2022-12-23T01:31:04.948Z,23.33
2022-12-23T01:33:35.530Z,28.43
2022-12-23T01:36:06.798Z,28.57
2022-12-23T01:38:34.636Z,28.20
2022-12-23T01:41:04.679Z,34.97
2022-12-23T01:43:51.987Z,28.33
2022-12-23T01:46:18.913Z,28.47
2022-12-23T01:48:50.759Z,23.60
2022-12-23T01:51:28.529Z,20.80
2022-12-23T01:53:59.678Z,19.60
2022-12-23T01:56:36.669Z,18.73
2022-12-23T01:59:11.214Z,15.27
2022-12-23T02:01:56.877Z,17.13
2022-12-23T02:04:25.727Z,16.53
2022-12-23T02:07:11.751Z,15.17
2022-12-23T02:09:40.665Z,16.23
2022-12-23T02:12:21.451Z,18.17
2022-12-23T02:15:24.976Z,16.13
2022-12-23T02:18:02.095Z,15.83
2022-12-23T02:20:34.572Z,14.90
2022-12-23T02:23:25.958Z,13.60
2022-12-23T02:25:58.582Z,16.50
2022-12-23T02:28:41.003Z,18.43
2022-12-23T02:31:55.240Z,20.03
2022-12-23T02:34:44.351Z,19.70
2022-12-23T02:37:39.316Z,21.70
2022-12-23T02:40:14.748Z,19.20
2022-12-23T02:43:20.067Z,27.20
2022-12-23T02:46:01.122Z,19.40
2022-12-23T02:48:55.224Z,23.47
2022-12-23T02:51:28.916Z,22.60
2022-12-23T02:53:59.552Z,21.27
2022-12-23T02:56:33.299Z,18.90
2022-12-23T02:59:11.298Z,18.33
2022-12-23T03:01:40.014Z,21.07
2022-12-23T03:04:07.125Z,23.57
2022-12-23T03:06:39.407Z,18.33
2022-12-23T03:09:06.845Z,17.67
2022-12-23T03:11:42.237Z,18.57
2022-12-23T03:14:17.935Z,17.83
2022-12-23T03:17:07.434Z,18.97
2022-12-23T03:19:43.808Z,13.07
2022-12-23T03:22:30.817Z,16.87
2022-12-23T03:25:16.489Z,14.50
2022-12-23T03:27:53.117Z,20.40
2022-12-23T03:30:25.205Z,18.27
2022-12-23T03:33:44.792Z,15.83
2022-12-23T03:36:18.511Z,16.17
2022-12-23T03:38:45.954Z,19.10
2022-12-23T03:41:21.807Z,17.43
2022-12-23T03:43:55.779Z,17.20
2022-12-23T03:49:33.924Z,17.67
2022-12-23T03:52:17.265Z,20.73
2022-12-23T03:54:53.796Z,16.53
2022-12-23T03:57:24.124Z,16.40
2022-12-23T03:59:51.568Z,22.90
2022-12-23T04:02:26.965Z,19.80
2022-12-23T04:05:22.282Z,20.60
2022-12-23T04:07:59.570Z,19.33
2022-12-23T04:10:27.638Z,17.90
2022-12-23T04:12:57.389Z,18.33
2022-12-23T04:15:27.266Z,19.53
2022-12-23T04:17:55.460Z,19.93
2022-12-23T04:20:22.490Z,17.87
2022-12-23T04:22:49.651Z,18.17
2022-12-23T04:25:20.187Z,19.97
2022-12-23T04:27:46.963Z,20.27
2022-12-23T04:30:14.101Z,19.03
2022-12-23T04:32:41.710Z,19.83
2022-12-23T04:35:11.926Z,20.53
2022-12-23T04:37:39.314Z,23.57
2022-12-23T04:40:07.132Z,19.93
2022-12-23T04:42:34.626Z,20.87
2022-12-23T04:45:01.449Z,21.17
2022-12-23T04:47:28.185Z,22.20
2022-12-23T04:49:55.068Z,23.13
2022-12-23T04:52:22.629Z,21.13
2022-12-23T04:54:49.682Z,27.03
2022-12-23T04:57:19.555Z,24.57
2022-12-23T04:59:46.804Z,21.93
2022-12-23T05:02:13.651Z,24.93
2022-12-23T05:04:40.694Z,22.53
2022-12-23T05:07:07.584Z,24.40
2022-12-23T05:09:34.467Z,22.20
2022-12-23T05:12:01.241Z,22.23
2022-12-23T05:14:28.076Z,21.23
2022-12-23T05:17:02.157Z,21.37
2022-12-23T05:19:32.151Z,27.80
2022-12-23T05:21:58.957Z,20.83
2022-12-23T05:24:25.760Z,20.60
2022-12-23T05:26:59.489Z,17.37
2022-12-23T05:29:27.115Z,20.50
2022-12-23T05:31:57.266Z,15.77
2022-12-23T05:34:24.134Z,14.13
2022-12-23T05:36:50.944Z,14.03
2022-12-23T05:39:17.995Z,14.37
2022-12-23T05:41:45.830Z,15.93
2022-12-23T05:44:12.577Z,15.00
2022-12-23T05:46:39.365Z,14.87
2022-12-23T05:49:06.135Z,16.53
2022-12-23T05:51:32.887Z,13.97
2022-12-23T05:53:59.744Z,15.53
2022-12-23T05:56:26.494Z,14.50
2022-12-23T05:58:53.362Z,14.83
2022-12-23T06:01:20.144Z,14.27
2022-12-23T06:03:47.067Z,12.00
2022-12-23T06:06:14.163Z,14.27
2022-12-23T06:08:41.019Z,14.43
2022-12-23T06:11:07.943Z,15.90
2022-12-23T06:13:34.687Z,14.70
2022-12-23T06:16:01.563Z,18.97
2022-12-23T06:18:28.458Z,18.60
2022-12-23T06:20:55.195Z,18.70
2022-12-23T06:23:21.945Z,21.37
2022-12-23T06:25:48.729Z,19.97
2022-12-23T06:28:15.540Z,25.33
2022-12-23T06:30:42.487Z,22.40
2022-12-23T06:33:09.205Z,31.00
2022-12-23T06:35:35.879Z,24.00
2022-12-23T06:38:03.329Z,22.23
2022-12-23T06:40:32.216Z,29.60
2022-12-23T06:42:58.940Z,30.30
2022-12-23T06:45:25.805Z,29.23
2022-12-23T06:47:52.784Z,26.07
2022-12-23T06:50:20.583Z,27.70
2022-12-23T06:52:49.004Z,32.20
2022-12-23T06:55:16.136Z,26.40
2022-12-23T06:57:42.954Z,33.33
2022-12-23T07:00:10.773Z,36.33
2022-12-23T07:02:37.529Z,33.87
2022-12-23T07:05:04.600Z,37.60
2022-12-23T07:07:33.329Z,34.47
2022-12-23T07:10:00.292Z,28.00
2022-12-23T07:12:27.124Z,35.47
2022-12-23T07:14:54.039Z,38.17
2022-12-23T07:17:20.835Z,34.77
2022-12-23T07:19:47.565Z,32.80
2022-12-23T07:22:14.357Z,36.60
2022-12-23T07:24:41.145Z,37.13
2022-12-23T07:27:07.860Z,34.93
2022-12-23T07:29:34.645Z,31.80
2022-12-23T07:32:02.661Z,34.03
2022-12-23T07:34:29.565Z,37.17
2022-12-23T07:36:56.503Z,35.83
2022-12-23T07:39:23.284Z,38.90
2022-12-23T07:41:59.002Z,41.03
2022-12-23T07:44:36.046Z,35.83
2022-12-23T07:47:02.968Z,39.83
2022-12-23T07:49:29.696Z,37.40
2022-12-23T07:51:56.413Z,46.90
2022-12-23T07:54:23.480Z,42.40
2022-12-23T07:56:50.342Z,46.30
2022-12-23T07:59:17.277Z,45.50
2022-12-23T08:01:44.271Z,47.53
2022-12-23T08:04:11.115Z,37.77
2022-12-23T08:06:38.386Z,43.13
2022-12-23T08:09:09.445Z,43.23
2022-12-23T08:11:36.136Z,45.67
2022-12-23T08:14:06.892Z,38.60
2022-12-23T08:16:43.121Z,39.73
2022-12-23T08:19:10.477Z,44.67
2022-12-23T08:21:37.283Z,39.03
2022-12-23T08:24:07.108Z,39.70
2022-12-23T08:26:33.925Z,33.50
2022-12-23T08:29:01.092Z,42.70
2022-12-23T08:31:33.207Z,39.13
2022-12-23T08:34:01.131Z,40.97
2022-12-23T08:36:31.768Z,42.30
2022-12-23T08:39:00.414Z,39.33
2022-12-23T08:41:30.746Z,43.27
2022-12-23T08:44:00.433Z,40.93
2022-12-23T08:46:28.200Z,41.17
2022-12-23T08:48:55.162Z,50.80
2022-12-23T08:51:23.469Z,42.53
2022-12-23T08:53:56.242Z,49.77
2022-12-23T08:56:31.959Z,54.77
2022-12-23T08:58:58.943Z,48.03
2022-12-23T09:01:28.652Z,47.13
2022-12-23T09:03:56.551Z,50.10
2022-12-23T09:06:30.457Z,54.57
2022-12-23T09:08:58.110Z,62.03
2022-12-23T09:11:28.015Z,54.17
2022-12-23T09:13:56.058Z,52.37
2022-12-23T09:16:23.501Z,63.77
2022-12-23T09:18:50.375Z,61.03
2022-12-23T09:21:20.397Z,65.30
2022-12-23T09:23:47.564Z,74.57
2022-12-23T09:26:27.195Z,68.70
2022-12-23T09:28:54.840Z,68.63
2022-12-23T09:31:22.597Z,74.07
2022-12-23T09:33:52.322Z,71.83
2022-12-23T09:36:20.261Z,66.00
2022-12-23T09:38:48.286Z,66.33
2022-12-23T09:41:35.267Z,67.33
2022-12-23T09:44:32.483Z,63.97
2022-12-23T09:47:06.342Z,62.97
2022-12-23T09:49:34.393Z,59.87
2022-12-23T09:52:04.697Z,57.03
2022-12-23T09:54:40.665Z,59.20
2022-12-23T09:57:23.072Z,62.93
2022-12-23T09:59:52.965Z,59.37
2022-12-23T10:02:38.011Z,58.80
2022-12-23T10:05:21.219Z,58.80
2022-12-23T10:08:06.768Z,57.83
2022-12-23T10:10:49.420Z,52.50
2022-12-23T10:13:43.954Z,51.37
2022-12-23T10:16:19.394Z,49.53
2022-12-23T10:19:20.645Z,50.77
2022-12-23T10:22:03.003Z,42.67
2022-12-23T10:24:48.623Z,46.67
2022-12-23T10:27:40.069Z,42.97
2022-12-23T10:33:15.242Z,35.10
2022-12-23T10:36:12.854Z,36.30
2022-12-23T10:38:44.493Z,34.83
2022-12-23T10:41:32.508Z,42.37
2022-12-23T10:44:25.411Z,32.40
2022-12-23T10:47:24.196Z,30.53
2022-12-23T10:50:11.403Z,28.77
2022-12-23T10:52:42.885Z,26.47
2022-12-23T10:55:29.791Z,30.73
2022-12-23T10:58:12.218Z,25.03
2022-12-23T11:00:42.909Z,27.10
2022-12-23T11:03:23.985Z,29.07
2022-12-23T11:05:54.183Z,25.97
2022-12-23T11:08:22.724Z,25.70
2022-12-23T11:10:49.836Z,26.10
2022-12-23T11:13:34.088Z,25.30
2022-12-23T11:16:22.574Z,23.53
2022-12-23T11:19:13.923Z,23.87
2022-12-23T11:22:00.134Z,27.10
2022-12-23T11:24:37.954Z,26.50
2022-12-23T11:27:17.032Z,25.00
2022-12-23T11:29:50.670Z,25.00
2022-12-23T11:35:29.015Z,22.90
2022-12-23T11:37:57.660Z,24.47
2022-12-23T11:40:38.722Z,23.37
2022-12-23T11:43:12.936Z,25.50
2022-12-23T11:45:39.718Z,22.93
2022-12-23T11:48:26.253Z,21.90
2022-12-23T11:51:03.891Z,24.87
2022-12-23T11:53:34.968Z,26.67
2022-12-23T11:56:08.863Z,29.23
2022-12-23T11:58:46.600Z,24.20
2022-12-23T12:01:23.200Z,22.03
2022-12-23T12:04:17.001Z,23.87
2022-12-23T12:06:51.131Z,27.47
2022-12-23T12:09:21.964Z,23.23
2022-12-23T12:12:06.311Z,27.30
2022-12-23T12:14:42.990Z,24.67
2022-12-23T12:17:15.963Z,21.77
2022-12-23T12:19:58.328Z,25.83
2022-12-23T12:22:40.614Z,22.30
2022-12-23T12:25:37.951Z,27.47
2022-12-23T12:28:16.350Z,22.37
2022-12-23T12:31:03.386Z,25.77
2022-12-23T12:33:39.588Z,23.40
2022-12-23T12:36:30.803Z,27.60
2022-12-23T12:38:59.943Z,22.87
2022-12-23T12:41:35.659Z,21.33
2022-12-23T12:44:24.276Z,21.10
2022-12-23T12:46:57.245Z,27.80
2022-12-23T12:49:45.063Z,20.40
2022-12-23T12:52:15.921Z,23.23
2022-12-23T12:55:13.736Z,23.33
2022-12-23T12:57:41.181Z,18.77
2022-12-23T13:00:20.348Z,18.17
2022-12-23T13:03:00.186Z,21.40
2022-12-23T13:06:04.720Z,19.10
2022-12-23T13:08:54.607Z,17.30
2022-12-23T13:14:59.224Z,18.87
2022-12-23T13:17:33.915Z,16.30
2022-12-23T13:20:16.004Z,16.87
2022-12-23T13:22:45.415Z,17.37
2022-12-23T13:25:21.824Z,19.13
2022-12-23T13:28:00.845Z,18.17
2022-12-23T13:30:36.595Z,18.37
2022-12-23T13:33:36.852Z,16.83
2022-12-23T13:36:37.943Z,19.70
2022-12-23T13:39:30.959Z,16.20
2022-12-23T13:42:05.950Z,17.23
2022-12-23T13:44:37.833Z,17.77
2022-12-23T13:47:40.278Z,15.13
2022-12-23T13:50:12.189Z,15.17
2022-12-23T13:53:03.228Z,14.90
2022-12-23T13:55:58.030Z,14.97
2022-12-23T13:58:27.176Z,15.43
2022-12-23T14:01:09.277Z,14.90
2022-12-23T14:03:38.012Z,15.73
2022-12-23T14:06:23.661Z,14.33
2022-12-23T14:08:52.296Z,17.87
2022-12-23T14:11:29.642Z,16.37
2022-12-23T14:14:00.350Z,14.43
2022-12-23T14:16:30.178Z,13.13
2022-12-23T14:19:12.124Z,14.73
2022-12-23T14:22:23.519Z,12.33
2022-12-23T14:25:11.447Z,11.67
2022-12-23T14:27:54.965Z,14.17
2022-12-23T14:30:35.894Z,10.47
2022-12-23T14:33:13.829Z,11.43
2022-12-23T14:35:42.794Z,9.13
2022-12-23T14:38:15.762Z,11.23
2022-12-23T14:40:42.537Z,15.20
2022-12-23T14:43:32.895Z,10.53
2022-12-23T14:46:05.059Z,9.17
2022-12-23T14:49:09.693Z,9.37
2022-12-23T14:51:40.249Z,11.47
2022-12-23T14:54:06.942Z,8.90
2022-12-23T14:56:39.879Z,6.40
2022-12-23T14:59:27.387Z,8.30
2022-12-23T15:01:58.385Z,7.37
2022-12-23T15:04:47.611Z,7.60
2022-12-23T15:07:35.607Z,6.87
2022-12-23T15:10:08.610Z,6.23
2022-12-23T15:12:38.561Z,7.33
2022-12-23T15:15:19.263Z,7.27
2022-12-23T15:17:48.429Z,6.40
2022-12-23T15:20:23.408Z,7.00
2022-12-23T15:22:50.505Z,7.73
2022-12-23T15:25:24.187Z,7.90
2022-12-23T15:27:57.329Z,8.97
2022-12-23T15:30:30.557Z,7.43
2022-12-23T15:33:01.412Z,9.17
2022-12-23T15:35:32.348Z,8.80
2022-12-23T15:38:01.117Z,7.30
2022-12-23T15:40:37.042Z,9.13
2022-12-23T15:43:19.701Z,9.10
2022-12-23T15:45:46.879Z,9.13
2022-12-23T15:48:27.548Z,10.10
2022-12-23T15:50:58.892Z,9.83
2022-12-23T15:53:32.124Z,10.60
2022-12-23T15:56:03.503Z,11.83
2022-12-23T15:58:33.772Z,11.20
2022-12-23T16:01:01.571Z,11.13
2022-12-23T16:03:38.925Z,12.70
2022-12-23T16:06:20.544Z,12.83
2022-12-23T16:09:06.350Z,13.37
2022-12-23T16:11:59.652Z,10.67
2022-12-23T16:14:42.292Z,12.87
2022-12-23T16:17:09.064Z,15.20
2022-12-23T16:20:34.162Z,14.40
2022-12-23T16:23:08.426Z,16.80
2022-12-23T16:25:37.886Z,18.53
2022-12-23T16:28:21.582Z,16.07
2022-12-23T16:30:49.752Z,18.83
2022-12-23T16:33:41.792Z,20.87
2022-12-23T16:36:21.373Z,22.00
2022-12-23T16:38:49.994Z,25.10
2022-12-23T16:41:17.295Z,25.40
2022-12-23T16:43:51.584Z,23.97
2022-12-23T16:46:20.749Z,23.67
2022-12-23T16:49:00.478Z,30.60
2022-12-23T16:51:32.326Z,25.57
2022-12-23T16:53:59.278Z,28.77
2022-12-23T16:56:36.472Z,21.73
2022-12-23T16:59:03.873Z,25.23
2022-12-23T17:01:35.013Z,31.40
2022-12-23T17:04:05.118Z,31.73
2022-12-23T17:06:32.024Z,32.20
2022-12-23T17:08:58.785Z,32.17
2022-12-23T17:11:45.029Z,31.87
2022-12-23T17:14:23.512Z,27.13
2022-12-23T17:16:51.547Z,23.73
2022-12-23T17:19:25.284Z,26.47
2022-12-23T17:22:02.039Z,26.83
2022-12-23T17:24:28.946Z,23.83
2022-12-23T17:26:59.108Z,25.33
2022-12-23T17:29:28.094Z,29.80
2022-12-23T17:31:54.862Z,28.57
2022-12-23T17:34:23.452Z,32.53
2022-12-23T17:36:51.355Z,30.03
2022-12-23T17:39:19.401Z,28.30
2022-12-23T17:41:46.395Z,34.93
2022-12-23T17:44:17.463Z,28.77
2022-12-23T17:46:45.559Z,32.97
2022-12-23T17:49:12.657Z,34.77
2022-12-23T17:51:40.358Z,34.70
2022-12-23T17:54:07.226Z,27.90
2022-12-23T17:56:34.047Z,31.57
2022-12-23T17:59:00.855Z,26.50
2022-12-23T18:01:30.021Z,32.07
2022-12-23T18:03:58.643Z,29.03
2022-12-23T18:06:27.556Z,31.67
2022-12-23T18:08:54.431Z,24.93
2022-12-23T18:11:33.704Z,27.30
2022-12-23T18:14:02.116Z,30.63
2022-12-23T18:16:29.332Z,26.77
2022-12-23T18:18:56.583Z,26.57
2022-12-23T18:21:26.601Z,36.40
2022-12-23T18:23:56.661Z,24.30
2022-12-23T18:26:23.943Z,27.80
2022-12-23T18:28:54.479Z,31.90
2022-12-23T18:31:24.103Z,19.87
2022-12-23T18:33:54.231Z,29.83
2022-12-23T18:36:24.376Z,26.13
2022-12-23T18:38:52.204Z,24.43
2022-12-23T18:41:20.130Z,24.53
2022-12-23T18:43:47.270Z,30.60
2022-12-23T18:46:14.035Z,35.63
2022-12-23T18:48:40.905Z,26.00
2022-12-23T18:51:07.705Z,25.50
2022-12-23T18:53:34.449Z,34.03
2022-12-23T18:56:01.238Z,26.90
2022-12-23T18:58:27.920Z,29.73
2022-12-23T19:00:55.037Z,20.57
2022-12-23T19:03:30.383Z,25.37
2022-12-23T19:06:00.316Z,37.23
2022-12-23T19:08:27.968Z,32.37
2022-12-23T19:10:55.991Z,33.73
2022-12-23T19:13:23.177Z,31.63
2022-12-23T19:15:50.477Z,33.27
2022-12-23T19:18:19.901Z,24.40
2022-12-23T19:20:51.546Z,35.93
2022-12-23T19:23:20.900Z,29.30
2022-12-23T19:25:54.490Z,30.77
2022-12-23T19:28:22.183Z,35.07
2022-12-23T19:30:53.220Z,27.73
2022-12-23T19:33:20.027Z,29.57
2022-12-23T19:35:46.746Z,29.80
2022-12-23T19:38:13.470Z,20.80
2022-12-23T19:40:40.626Z,32.63
2022-12-23T19:43:07.725Z,24.60
2022-12-23T19:45:34.580Z,29.43
2022-12-23T19:48:01.316Z,26.57
2022-12-23T19:50:28.223Z,27.50
2022-12-23T19:52:56.211Z,22.07
2022-12-23T19:55:23.705Z,24.57
2022-12-23T19:57:50.545Z,25.50
2022-12-23T20:00:17.384Z,22.90
2022-12-23T20:02:44.237Z,22.83
2022-12-23T20:05:11.021Z,25.37
2022-12-23T20:07:37.873Z,18.00
2022-12-23T20:10:05.815Z,23.50
2022-12-23T20:12:32.765Z,20.63
2022-12-23T20:14:59.679Z,18.43
2022-12-23T20:17:26.378Z,26.53
2022-12-23T20:19:53.101Z,27.10
2022-12-23T20:22:19.825Z,16.40
2022-12-23T20:24:46.510Z,19.77
2022-12-23T20:27:15.708Z,23.77
2022-12-23T20:29:42.833Z,27.47
2022-12-23T20:32:09.547Z,26.23
2022-12-23T20:34:39.777Z,25.83
2022-12-23T20:37:07.368Z,22.60
2022-12-23T20:39:34.403Z,24.53
2022-12-23T20:42:01.180Z,21.97
2022-12-23T20:44:37.024Z,24.70
2022-12-23T20:47:06.252Z,20.23
2022-12-23T20:49:36.100Z,18.60
2022-12-23T20:52:05.794Z,23.87
2022-12-23T20:54:35.355Z,25.37
2022-12-23T20:57:02.849Z,21.50
2022-12-23T20:59:29.578Z,19.07
2022-12-23T21:01:59.118Z,26.37
2022-12-23T21:04:48.063Z,18.27
2022-12-23T21:07:15.264Z,25.83
2022-12-23T21:09:42.005Z,15.13
2022-12-23T21:12:08.807Z,21.43
2022-12-23T21:14:35.986Z,20.93
2022-12-23T21:17:03.837Z,19.27
2022-12-23T21:19:30.655Z,18.10
2022-12-23T21:21:57.632Z,27.30
2022-12-23T21:24:24.412Z,19.27
2022-12-23T21:26:56.909Z,22.97
2022-12-23T21:29:24.913Z,23.60
2022-12-23T21:31:51.860Z,23.90
2022-12-23T21:34:18.704Z,19.83
2022-12-23T21:36:45.523Z,22.10
2022-12-23T21:39:16.816Z,19.47
2022-12-23T21:41:44.226Z,22.27
2022-12-23T21:44:14.321Z,21.77
2022-12-23T21:46:41.203Z,21.53
2022-12-23T21:49:07.947Z,22.47
2022-12-23T21:51:40.192Z,23.27
2022-12-23T21:54:09.714Z,19.53
2022-12-23T21:56:37.462Z,20.03
2022-12-23T21:59:13.161Z,21.27
2022-12-23T22:01:41.022Z,20.87
2022-12-23T22:04:07.899Z,24.90
2022-12-23T22:06:37.483Z,18.43
2022-12-23T22:09:08.073Z,19.23
2022-12-23T22:11:36.531Z,22.60
2022-12-23T22:14:05.407Z,22.50
2022-12-23T22:16:33.524Z,20.20
2022-12-23T22:19:01.565Z,23.93
2022-12-23T22:21:30.802Z,24.10
2022-12-23T22:24:00.329Z,25.67
2022-12-23T22:26:30.172Z,23.73
2022-12-23T22:29:00.099Z,16.73
2022-12-23T22:31:47.027Z,22.63
2022-12-23T22:34:31.302Z,30.87
2022-12-23T22:37:00.864Z,22.73
2022-12-23T22:39:27.838Z,21.43
2022-12-23T22:41:54.550Z,23.60
2022-12-23T22:44:21.759Z,26.17
2022-12-23T22:46:51.026Z,21.17
2022-12-23T22:49:17.922Z,23.90
2022-12-23T22:51:48.230Z,27.93
2022-12-23T22:54:14.996Z,25.37
2022-12-23T22:56:42.341Z,22.40
2022-12-23T22:59:20.501Z,28.97
2022-12-23T23:01:48.991Z,27.43
2022-12-23T23:04:15.879Z,24.37
2022-12-23T23:06:42.886Z,21.87
2022-12-23T23:09:14.625Z,27.27
2022-12-23T23:11:41.850Z,26.60
2022-12-23T23:14:08.613Z,23.93
2022-12-23T23:16:35.446Z,24.10
2022-12-23T23:19:06.191Z,22.00
2022-12-23T23:21:33.425Z,27.93
2022-12-23T23:24:00.260Z,25.57
2022-12-23T23:26:29.852Z,21.97
2022-12-23T23:28:56.913Z,20.63
2022-12-23T23:34:11.475Z,26.50
2022-12-23T23:36:38.518Z,18.13
2022-12-23T23:39:05.402Z,21.23
2022-12-23T23:41:32.418Z,19.90
2022-12-23T23:43:59.202Z,19.60
2022-12-23T23:46:25.984Z,19.03
2022-12-23T23:48:56.123Z,26.87
2022-12-23T23:51:23.128Z,18.93
2022-12-23T23:53:49.857Z,21.63
2022-12-23T23:56:22.077Z,31.60
2022-12-23T23:58:54.104Z,24.17
